Time;durP1;ratioP1;P1;durP2;ratioP2;P2;SDS_P1;SDS_P2;PMS_P1;PMS_P2;Temp;Humidity;BMP_temperature;BMP_pressure;BME280_temperature;BME280_humidity;BME280_pressure;Samples;Min_cycle;Max_cycle;Signal;HPM_P1;HPM_P2
2022/05/05 00:09:04;;;;;;;2.07;1.43;;;17.40;99.90;;;;;;20979427;28;20229;-80
2022/05/05 00:19:06;;;;;;;2.03;1.30;;;;;;;;;;20963092;28;20239;-80
2022/05/05 00:29:07;;;;;;;2.53;1.67;;;;;;;;;;20996368;28;20233;-79
2022/05/05 00:39:12;;;;;;;2.27;1.67;;;17.30;99.90;;;;;;20970725;28;20221;-80
2022/05/05 00:49:14;;;;;;;2.80;1.70;;;;;;;;;;21008040;28;20653;-80
2022/05/05 00:59:16;;;;;;;2.70;1.90;;;17.20;99.90;;;;;;20994689;28;20706;-79
2022/05/05 01:09:18;;;;;;;2.80;1.97;;;;;;;;;;20975400;28;20630;-80
2022/05/05 01:19:20;;;;;;;2.77;2.20;;;;;;;;;;20748236;28;20713;-81
2022/05/05 01:29:23;;;;;;;2.03;1.70;;;;;;;;;;20641201;28;20262;-80
2022/05/05 01:39:25;;;;;;;2.57;1.93;;;;;;;;;;20685723;28;20209;-81
2022/05/05 01:49:28;;;;;;;3.07;2.13;;;;;;;;;;20621798;28;20602;-81
2022/05/05 01:59:29;;;;;;;3.80;2.60;;;;;;;;;;20571443;28;20221;-83
2022/05/05 02:09:31;;;;;;;3.60;2.43;;;;;;;;;;20795383;28;20290;-80
2022/05/05 02:19:33;;;;;;;4.07;2.00;;;;;;;;;;20988650;28;20580;-83
2022/05/05 02:29:35;;;;;;;2.33;1.83;;;;;;;;;;20534963;28;20232;-83
2022/05/05 02:39:37;;;;;;;3.10;2.40;;;;;;;;;;20633567;28;20795;-84
2022/05/05 06:20:20;;;;;;;3.70;2.70;;;;;;;;;;20505237;28;20229;-81
2022/05/05 06:30:22;;;;;;;3.70;2.60;;;;;;;;;;20555446;28;20279;-82
2022/05/05 06:40:24;;;;;;;6.23;3.20;;;;;;;;;;20570620;28;20201;-82
2022/05/05 06:50:26;;;;;;;5.47;3.17;;;;;;;;;;20642311;28;20283;-82
2022/05/05 07:01:51;;;;;;;4.27;3.03;;;;;;;;;;20468485;28;20221;-81
2022/05/05 07:10:52;;;;;;;4.37;3.03;;;;;;;;;;20589817;28;20233;-82
2022/05/05 07:20:54;;;;;;;3.67;2.67;;;;;;;;;;20847275;28;20248;-82
2022/05/05 07:30:57;;;;;;;3.63;2.47;;;;;;;;;;20967932;28;20630;-81
2022/05/05 07:40:58;;;;;;;4.33;2.77;;;;;;;;;;20964857;28;20275;-82
2022/05/05 07:51:00;;;;;;;4.77;3.07;;;15.50;99.90;;;;;;20963055;28;20229;-82
2022/05/05 08:01:02;;;;;;;4.07;2.67;;;;;;;;;;20831176;28;20248;-84
2022/05/05 08:11:04;;;;;;;4.47;2.70;;;;;;;;;;20592929;28;20745;-84
2022/05/05 08:21:06;;;;;;;4.57;2.60;;;;;;;;;;20605031;28;20263;-84
2022/05/05 08:31:10;;;;;;;3.43;2.70;;;;;;;;;;20625246;28;20248;-85
2022/05/05 08:41:12;;;;;;;5.77;3.20;;;16.00;99.90;;;;;;20605334;28;20221;-84
2022/05/05 08:51:18;;;;;;;3.47;2.63;;;;;;;;;;20620456;28;20298;-84
2022/05/05 09:01:20;;;;;;;3.97;2.97;;;;;;;;;;20702318;28;20223;-83
2022/05/05 09:11:23;;;;;;;5.00;2.73;;;;;;;;;;20712890;28;20289;-84
2022/05/05 09:21:34;;;;;;;3.87;2.70;;;;;;;;;;20698684;28;20293;-83
2022/05/05 09:31:38;;;;;;;5.10;2.80;;;;;;;;;;20598414;28;20288;-84
2022/05/05 09:41:45;;;;;;;3.87;2.47;;;15.90;99.90;;;;;;20695576;28;20245;-83
2022/05/05 10:12:52;;;;;;;4.37;2.90;;;15.70;99.90;;;;;;20637806;28;20248;-84
2022/05/05 10:23:10;;;;;;;6.10;2.50;;;;;;;;;;20949101;28;20249;-84
2022/05/05 10:33:12;;;;;;;3.90;2.60;;;;;;;;;;20953225;28;20220;-82
2022/05/05 10:43:30;;;;;;;4.23;2.93;;;;;;;;;;20968093;28;20751;-83
2022/05/05 10:53:31;;;;;;;3.73;2.03;;;;;;;;;;20936364;28;20220;-82
2022/05/05 11:03:33;;;;;;;3.00;2.23;;;;;;;;;;20967401;28;20269;-82
2022/05/05 11:13:42;;;;;;;3.77;2.10;;;15.60;99.90;;;;;;20933245;28;20600;-82
2022/05/05 11:23:46;;;;;;;3.57;2.03;;;;;;;;;;20981667;28;20275;-83
2022/05/05 11:33:54;;;;;;;4.47;2.63;;;;;;;;;;20963922;28;20706;-81
2022/05/05 11:54:24;;;;;;;3.50;2.23;;;;;;;;;;20580812;28;20217;-81
2022/05/05 12:04:27;;;;;;;4.10;2.50;;;;;;;;;;20991883;28;20274;-83
2022/05/05 12:14:39;;;;;;;3.63;2.50;;;;;;;;;;20991296;28;20221;-83
2022/05/05 12:24:45;;;;;;;3.87;2.30;;;;;;;;;;20948956;28;20714;-82
2022/05/05 12:34:47;;;;;;;4.13;2.47;;;;;;;;;;20938642;28;20784;-84
2022/05/05 12:44:50;;;;;;;3.17;2.30;;;;;;;;;;20654607;28;20282;-83
2022/05/05 13:05:18;;;;;;;8.53;3.37;;;16.10;99.90;;;;;;20988923;28;20229;-82
2022/05/05 13:15:23;;;;;;;3.03;2.07;;;;;;;;;;20915009;28;20705;-82
2022/05/05 13:25:28;;;;;;;2.83;1.87;;;;;;;;;;20635531;28;20221;-82
2022/05/05 13:35:30;;;;;;;3.63;2.50;;;;;;;;;;20859718;28;20236;-83
2022/05/05 13:45:32;;;;;;;4.70;2.67;;;;;;;;;;20631881;28;20290;-84
2022/05/05 13:55:35;;;;;;;5.53;2.70;;;;;;;;;;20649251;28;20224;-81
2022/05/05 14:05:37;;;;;;;5.90;2.37;;;;;;;;;;20619439;28;20278;-82
2022/05/05 14:15:40;;;;;;;3.53;2.30;;;;;;;;;;20649862;28;20240;-82
2022/05/05 14:25:42;;;;;;;3.80;2.50;;;;;;;;;;20720420;28;20220;-83
2022/05/05 14:35:45;;;;;;;3.47;2.57;;;;;;;;;;20648020;28;20217;-85
2022/05/05 14:45:47;;;;;;;6.30;2.77;;;;;;;;;;20650576;28;20240;-85
2022/05/05 14:55:50;;;;;;;3.27;2.07;;;;;;;;;;20633583;28;20286;-84
2022/05/05 15:05:54;;;;;;;6.37;2.93;;;;;;;;;;20632234;28;20232;-84
2022/05/05 15:15:56;;;;;;;3.33;2.27;;;;;;;;;;20654133;28;20224;-84
2022/05/05 15:25:59;;;;;;;4.47;2.73;;;16.90;99.90;;;;;;20631932;28;20634;-84
2022/05/05 15:36:01;;;;;;;5.73;2.90;;;;;;;;;;20614146;28;20216;-84
2022/05/05 15:46:02;;;;;;;3.17;2.13;;;;;;;;;;20627741;28;20248;-84
2022/05/05 15:56:08;;;;;;;5.17;2.83;;;;;;;;;;20624484;28;20225;-82
2022/05/05 16:06:11;;;;;;;4.63;2.60;;;;;;;;;;20625145;28;20236;-82
2022/05/05 16:16:12;;;;;;;5.63;3.00;;;;;;;;;;20624326;28;20755;-82
2022/05/05 16:36:53;;;;;;;4.20;2.63;;;;;;;;;;20562118;28;20208;-82
2022/05/05 16:46:55;;;;;;;3.80;2.37;;;;;;;;;;20774355;28;20217;-82
2022/05/05 16:56:57;;;;;;;4.67;2.83;;;;;;;;;;20615856;28;20238;-82
2022/05/05 17:06:59;;;;;;;3.57;2.53;;;;;;;;;;20569015;28;20287;-82
2022/05/05 17:17:01;;;;;;;3.63;2.57;;;;;;;;;;20939390;28;20281;-81
2022/05/05 17:27:02;;;;;;;5.33;2.60;;;;;;;;;;20823961;28;20235;-81
2022/05/05 17:37:05;;;;;;;5.30;2.90;;;;;;;;;;20670892;28;20209;-81
2022/05/05 17:57:28;;;;;;;3.53;2.17;;;;;;;;;;20531496;28;20300;-81
2022/05/05 18:07:32;;;;;;;4.30;2.63;;;;;;;;;;20743400;28;20220;-82
2022/05/05 18:17:34;;;;;;;4.77;2.40;;;;;;;;;;20612698;28;20232;-81
2022/05/05 18:27:36;;;;;;;4.53;2.53;;;;;;;;;;20558075;28;20714;-81
2022/05/05 18:37:38;;;;;;;5.30;3.03;;;;;;;;;;20633780;28;20217;-80
2022/05/05 18:47:39;;;;;;;5.40;2.53;;;;;;;;;;20633128;28;20262;-80
2022/05/05 18:57:42;;;;;;;6.33;2.77;;;;;;;;;;20557661;28;20282;-82
2022/05/05 19:07:44;;;;;;;5.27;2.80;;;;;;;;;;20541212;28;20279;-82
2022/05/05 19:17:47;;;;;;;4.90;2.90;;;;;;;;;;20556591;28;20637;-81
2022/05/05 19:27:49;;;;;;;4.83;3.13;;;;;;;;;;20568721;28;20233;-82
2022/05/05 19:37:51;;;;;;;6.60;2.97;;;;;;;;;;20638134;28;20294;-80
2022/05/05 19:47:53;;;;;;;3.00;2.13;;;;;;;;;;20741997;28;20236;-81
2022/05/05 20:08:15;;;;;;;5.00;2.30;;;;;;;;;;20781079;28;20236;-81
2022/05/05 20:18:17;;;;;;;3.23;2.23;;;;;;;;;;20566218;28;20220;-81
2022/05/05 20:28:19;;;;;;;4.00;2.43;;;;;;;;;;20615254;28;20232;-81
2022/05/05 20:38:21;;;;;;;2.63;2.00;;;;;;;;;;20632751;28;20686;-81
2022/05/05 20:48:22;;;;;;;3.90;2.20;;;;;;;;;;20560589;28;20618;-82
2022/05/05 20:58:24;;;;;;;5.17;2.73;;;;;;;;;;20484952;28;20217;-82
2022/05/05 21:08:26;;;;;;;3.43;2.13;;;;;;;;;;20549880;28;20298;-83
2022/05/05 21:18:27;;;;;;;4.57;2.27;;;;;;;;;;20565778;28;20294;-81
2022/05/05 21:28:29;;;;;;;4.10;2.13;;;;;;;;;;20596768;28;20314;-82
2022/05/05 21:38:31;;;;;;;2.90;1.93;;;;;;;;;;20990447;28;20221;-81
2022/05/05 21:48:33;;;;;;;2.57;1.63;;;;;;;;;;20957395;28;20232;-81
2022/05/05 21:58:35;;;;;;;3.77;2.07;;;;;;;;;;20956460;28;20253;-80
2022/05/05 22:08:37;;;;;;;3.10;2.10;;;;;;;;;;20990228;28;20229;-80
2022/05/05 22:18:38;;;;;;;4.23;1.87;;;;;;;;;;20989892;28;20263;-80
2022/05/05 22:28:40;;;;;;;2.33;1.87;;;;;;;;;;20975285;28;20225;-80
2022/05/05 22:38:42;;;;;;;2.27;1.63;;;15.40;99.90;;;;;;20967619;28;20213;-82
2022/05/05 22:59:04;;;;;;;3.20;2.00;;;;;;;;;;21004586;28;20209;-83
2022/05/05 23:09:06;;;;;;;4.10;2.23;;;;;;;;;;20968300;28;20270;-83
2022/05/05 23:19:07;;;;;;;2.70;1.80;;;;;;;;;;20983953;28;20290;-82
2022/05/05 23:29:09;;;;;;;3.30;1.77;;;;;;;;;;20950175;28;20714;-82
2022/05/05 23:39:11;;;;;;;2.77;1.80;;;;;;;;;;20966118;28;20255;-82
2022/05/05 23:49:13;;;;;;;3.90;2.17;;;;;;;;;;21035996;28;20293;-82
2022/05/05 23:59:16;;;;;;;2.87;2.03;;;;;;;;;;20945996;28;20221;-82
